KSTC/STC METAR and TAF weather

Enter ICAO airport designator
Station Type Date Time Source
KSTC METAR 2019/12/08 23:53 UTC NOAA

KSTC 082353Z 09003KT 10SM OVC017 M01/M03 A2977 RMK AO2 SLP103 T10061033 10000 21006 55003


Station Type Date Time Source
KSTC Decoded METAR 2019/12/08 23:53 UTC NOAA

ST. CLOUD REGIONAL AIRPORT, MN, United States (KSTC) 45-33N 094-03W
Dec 08, 2019 - 06:53 PM EST / 2019.12.08 2353 UTC
Wind: from the E (090 degrees) at 3 MPH (3 KT):0
Visibility: 10 mile(s):0
Sky conditions: overcast
Temperature: 30.9 F (-0.6 C)
Dew Point: 26.1 F (-3.3 C)
Relative Humidity: 81%
Pressure (altimeter): 29.77 in. Hg (1008 hPa)
Pressure tendency: 0.01 inches (0.3 hPa) lower than three hours ago
ob: KSTC 082353Z 09003KT 10SM OVC017 M01/M03 A2977 RMK AO2 SLP103 T10061033 10000 21006 55003
cycle: 0

Station Type Date Time Source
KSTC TAF 2019/12/08 18:39 UTC NOAA

TAF KSTC 081736Z 0818/0918 35009KT P6SM OVC010
FM090200 03008KT P6SM OVC009
FM090600 01010KT 2SM -SN BR OVC006
FM091400 34012KT 1SM -SN BR OVC006
FM091500 34013G20KT 2SM -SN BLSN BR OVC010
FM091700 33013G20KT 5SM BLSN OVC012

Example: see airport list